createdAt,value
2023-01-18T00:02:27.958Z,94235.56
2023-01-18T00:05:29.984Z,94243.16
2023-01-18T00:08:32.996Z,94240.75
2023-01-18T00:11:34.518Z,94246.75
2023-01-18T00:14:36.051Z,94247.97
2023-01-18T00:17:53.157Z,94245.16
2023-01-18T00:20:54.676Z,94248.97
2023-01-18T00:23:58.889Z,94254.78
2023-01-18T00:27:00.495Z,94251.97
2023-01-18T00:30:03.874Z,94253.78
2023-01-18T00:33:05.480Z,94243.94
2023-01-18T00:36:07.343Z,94247.75
2023-01-18T00:39:08.922Z,94274.41
2023-01-18T00:42:29.149Z,94259.97
2023-01-18T00:45:30.744Z,94252.94
2023-01-18T00:48:33.255Z,94254.16
2023-01-18T00:51:34.812Z,94253.16
2023-01-18T00:54:36.314Z,94258.78
2023-01-18T17:37:27.028Z,95761.44
2023-01-18T17:40:39.279Z,95756.00
2023-01-18T17:43:41.759Z,95771.56
2023-01-18T17:46:43.348Z,95776.16
2023-01-18T17:49:44.974Z,95788.19
2023-01-18T17:52:46.489Z,95788.47
2023-01-18T17:55:48.241Z,95783.28
2023-01-18T17:58:49.950Z,95798.22
2023-01-18T18:01:51.733Z,95798.00
2023-01-18T18:04:53.451Z,95799.88
2023-01-18T18:07:54.968Z,95805.84
2023-01-18T18:10:56.564Z,95806.72
2023-01-18T18:13:59.006Z,95817.94
2023-01-18T18:17:02.041Z,95823.31
2023-01-18T18:20:04.304Z,95825.78
2023-01-18T18:23:05.847Z,95830.59
2023-01-18T18:26:07.650Z,95839.00
2023-01-18T18:29:09.476Z,95840.97
2023-01-18T18:32:11.666Z,95854.03
2023-01-18T18:35:25.890Z,95860.72
2023-01-18T18:38:28.046Z,95863.47
2023-01-18T18:41:39.619Z,95870.56
2023-01-18T18:44:41.587Z,95880.16
2023-01-18T18:47:43.470Z,95890.28
2023-01-18T18:50:47.329Z,95885.59
2023-01-18T18:53:49.038Z,95894.84
2023-01-18T18:56:50.645Z,95905.47
2023-01-18T18:59:52.278Z,95899.75
2023-01-18T19:02:58.471Z,95908.66
2023-01-18T19:06:00.197Z,95909.06
2023-01-18T19:09:01.770Z,95912.94
2023-01-18T19:12:03.566Z,95921.31
2023-01-18T19:15:05.440Z,95929.22
2023-01-18T19:18:06.955Z,95931.69
2023-01-18T19:21:08.689Z,95939.22
2023-01-18T19:24:10.214Z,95945.53
2023-01-18T19:27:11.725Z,95947.44
2023-01-18T19:30:18.923Z,95948.66
2023-01-18T19:33:20.536Z,95951.41
2023-01-18T19:36:22.407Z,95958.25
2023-01-18T19:39:24.200Z,95961.97
2023-01-18T19:42:25.861Z,95968.63
2023-01-18T19:45:28.984Z,95972.19
2023-01-18T19:48:30.738Z,95966.06
2023-01-18T19:51:37.265Z,95975.22
2023-01-18T19:54:38.941Z,95974.00
2023-01-18T19:57:40.669Z,95977.81
2023-01-18T20:00:42.276Z,95971.25
2023-01-18T20:03:44.104Z,95980.03
2023-01-18T20:06:46.263Z,95973.31
2023-01-18T20:09:47.885Z,95980.28
2023-01-18T20:12:50.024Z,95982.22
2023-01-18T20:15:54.521Z,95987.25
2023-01-18T20:18:56.188Z,95995.06
2023-01-18T20:21:57.722Z,95991.25
2023-01-18T20:24:59.275Z,96004.47
2023-01-18T20:28:01.083Z,96006.78
2023-01-18T20:31:05.796Z,96007.09
2023-01-18T20:34:07.699Z,96009.94
2023-01-18T20:37:10.169Z,96009.94
2023-01-18T20:40:12.220Z,96006.66
2023-01-18T20:43:14.849Z,96019.66
2023-01-18T20:46:16.535Z,96021.28
2023-01-18T20:49:22.448Z,96016.09
2023-01-18T20:52:26.300Z,96036.56
2023-01-18T20:55:27.815Z,96037.81
2023-01-18T20:58:29.961Z,96044.66
2023-01-18T21:01:32.662Z,96042.88
2023-01-18T21:04:34.453Z,96041.50
2023-01-18T21:07:36.173Z,96051.75
2023-01-18T21:10:41.896Z,96051.88
2023-01-18T21:13:43.798Z,96056.53
2023-01-18T21:16:45.461Z,96057.88
2023-01-18T21:19:47.456Z,96058.84
2023-01-18T21:22:49.068Z,96052.97
2023-01-18T21:25:51.445Z,96050.38
2023-01-18T21:28:53.642Z,96063.75
2023-01-18T21:31:55.263Z,96074.94
2023-01-18T21:34:56.874Z,96073.72
2023-01-18T21:38:02.429Z,96073.59
2023-01-18T21:41:23.101Z,96083.03
2023-01-18T21:44:42.889Z,96069.38
2023-01-18T21:47:44.455Z,96072.66
2023-01-18T21:51:04.640Z,96067.03
2023-01-18T21:54:15.257Z,96078.38
2023-01-18T21:57:16.769Z,96086.00
2023-01-18T22:00:18.943Z,96093.22
2023-01-18T22:03:20.710Z,96087.34
2023-01-18T22:06:22.201Z,96101.13
2023-01-18T22:09:27.220Z,96107.31
2023-01-18T22:12:29.537Z,96106.78
2023-01-18T22:15:31.172Z,96110.03
2023-01-18T22:18:32.779Z,96119.31
2023-01-18T22:21:34.505Z,96125.34
2023-01-18T22:24:36.424Z,96122.03
2023-01-18T22:27:37.908Z,96121.47
2023-01-18T22:30:40.320Z,96124.88
2023-01-18T22:33:42.527Z,96133.72
2023-01-18T22:36:44.070Z,96130.44
2023-01-18T22:39:45.646Z,96129.31
2023-01-18T22:42:47.210Z,96130.47
2023-01-18T22:45:55.467Z,96130.88
2023-01-18T22:48:58.925Z,96130.16
2023-01-18T22:52:00.662Z,96131.91
2023-01-18T22:55:02.270Z,96136.97
2023-01-18T22:58:04.074Z,96143.19
2023-01-18T23:01:18.193Z,96141.13
2023-01-18T23:04:20.459Z,96145.06
2023-01-18T23:07:22.125Z,96138.28
2023-01-18T23:10:23.652Z,96147.28
2023-01-18T23:13:25.290Z,96151.19
2023-01-18T23:16:45.309Z,96153.34
2023-01-18T23:19:47.527Z,96150.34
2023-01-18T23:22:50.070Z,96147.88
2023-01-18T23:25:56.148Z,96160.94
2023-01-18T23:28:57.796Z,96156.72
2023-01-18T23:31:59.534Z,96168.13
2023-01-18T23:35:01.103Z,96171.81
2023-01-18T23:38:08.201Z,96158.28
2023-01-18T23:41:28.470Z,96162.16
2023-01-18T23:44:48.792Z,96165.81
2023-01-18T23:48:08.625Z,96162.78
2023-01-18T23:51:28.552Z,96164.31
2023-01-18T23:54:30.222Z,96172.09
2023-01-18T23:57:32.733Z,96170.47
